Ouloup Ile Ouvea, New Caledonia
Current Conditions -  °F | °C
As of 1:00 AM on Thursday 29 Jan 2015 (Local Time) from NWWW Reporting Station
Clear Clear  
Wind Chill: 77°   Ceiling: Unl
Heat Index: 79°   Visibility: 6mi
Dew Point: 70°   Wind: 5mph
Humidity: 78%   Direction: 350°N
Pressure: 29.59"   Gusts: NA
Location:  20.65°S, 166.58°E
Report Text: NWWW 281400Z AUTO 35004KT 330V030 9999 NSC 25/21 Q1002
Loading
Personal Weather Stations






























Interactive Weather Map New forecast layout! Learn more

10-Day Weather Forecast

Advertisements
Track Severe Weather on mobile